Time;durP1;ratioP1;P1;durP2;ratioP2;P2;SDS_P1;SDS_P2;PMS_P1;PMS_P2;Temp;Humidity;BMP_temperature;BMP_pressure;BME280_temperature;BME280_humidity;BME280_pressure;Samples;Min_cycle;Max_cycle;Signal;HPM_P1;HPM_P2
2021/09/28 00:02:25;;;;;;;8.40;2.78;;;21.50;69.40;;;;;;20852046;28;20112;-60
2021/09/28 00:12:26;;;;;;;11.80;2.38;;;21.40;69.70;;;;;;20826153;28;20025;-61
2021/09/28 00:22:26;;;;;;;12.30;2.50;;;21.40;69.50;;;;;;20837230;28;20025;-59
2021/09/28 00:32:27;;;;;;;6.50;2.07;;;21.40;69.80;;;;;;20846641;28;20395;-60
2021/09/28 00:42:28;;;;;;;4.15;1.52;;;21.30;69.70;;;;;;20865596;28;20033;-60
2021/09/28 00:52:31;;;;;;;6.55;1.42;;;21.30;70.00;;;;;;20847530;28;20089;-54
2021/09/28 01:02:31;;;;;;;4.78;1.50;;;21.30;70.10;;;;;;20867768;28;20037;-60
2021/09/28 01:12:32;;;;;;;6.22;1.60;;;21.30;69.80;;;;;;20885766;28;20553;-59
2021/09/28 01:22:33;;;;;;;4.70;1.20;;;21.30;69.90;;;;;;20856617;28;20040;-60
2021/09/28 01:32:33;;;;;;;4.40;1.87;;;21.30;69.80;;;;;;20877939;28;20471;-59
2021/09/28 01:42:34;;;;;;;2.28;1.38;;;21.30;69.80;;;;;;20878440;28;20554;-58
2021/09/28 01:52:37;;;;;;;4.00;1.00;;;21.30;69.90;;;;;;20887306;28;20042;-60
2021/09/28 02:02:37;;;;;;;3.17;1.63;;;21.30;70.00;;;;;;20879418;28;20049;-60
2021/09/28 02:12:38;;;;;;;5.28;1.08;;;21.30;69.80;;;;;;20892802;28;20029;-59
2021/09/28 02:22:39;;;;;;;3.05;1.02;;;21.30;69.80;;;;;;20874181;28;20373;-60
2021/09/28 02:32:40;;;;;;;5.93;1.50;;;21.20;69.90;;;;;;20884724;28;20032;-62
2021/09/28 02:42:41;;;;;;;3.85;1.25;;;21.30;69.30;;;;;;20815822;28;20050;-56
2021/09/28 02:45:31;;;;;;;3.65;1.15;;;21.40;68.30;;;;;;191872;27;21111;-74
2021/09/28 02:45:37;;;;;;;17.20;1.88;;;21.30;69.10;;;;;;193378;28;11640;-74
2021/09/28 02:45:50;;;;;;;18.03;2.03;;;21.30;69.10;;;;;;198685;28;11661;-74
2021/09/28 02:45:59;;;;;;;14.73;2.00;;;21.30;69.10;;;;;;194144;28;84011;-74
2021/09/28 02:46:06;;;;;;;14.38;2.20;;;21.30;69.10;;;;;;172207;33;98778;-73
2021/09/28 02:46:12;;;;;;;11.52;2.33;;;21.30;69.10;;;;;;198711;28;1092;-74
2021/09/28 04:26:20;;;;;;;4.20;1.20;;;21.30;69.10;;;;;;207440149;27;20645;-75
2021/09/28 06:06:26;;;;;;;3.20;0.82;;;20.90;68.10;;;;;;206550329;28;20030;-74
2021/09/28 18:54:42;;;;;;;5.70;2.95;;;20.40;68.90;;;;;;189212;27;20193;-62
2021/09/28 18:54:53;;;;;;;4.17;2.43;;;20.60;65.00;;;;;;187763;28;82954;-62
2021/09/28 18:55:03;;;;;;;6.05;2.80;;;20.50;64.80;;;;;;195140;28;61855;-62
2021/09/28 18:55:12;;;;;;;10.10;3.17;;;20.50;64.60;;;;;;200402;28;40111;-64
2021/09/28 18:55:24;;;;;;;12.05;3.45;;;20.50;64.70;;;;;;199797;28;16219;-64
2021/09/28 18:55:34;;;;;;;12.52;3.42;;;20.50;64.90;;;;;;172788;33;76180;-64
2021/09/28 19:05:56;;;;;;;5.13;2.53;;;20.50;65.90;;;;;;20871844;27;21291;-64
2021/09/28 19:15:57;;;;;;;7.40;3.53;;;20.60;65.20;;;;;;20886084;28;20491;-65
2021/09/28 19:25:58;;;;;;;11.30;3.42;;;20.70;68.50;;;;;;20955156;28;20025;-64
2021/09/28 19:35:59;;;;;;;13.18;3.85;;;20.80;65.50;;;;;;21035355;28;20522;-62
2021/09/28 19:46:19;;;;;;;8.40;2.75;;;20.90;63.60;;;;;;21051615;28;20031;-61
2021/09/28 20:37:33;;;;;;;9.82;3.30;;;20.60;66.70;;;;;;20995889;28;20025;-62
2021/09/28 20:47:33;;;;;;;10.55;3.50;;;20.50;67.00;;;;;;20995307;28;20028;-62
2021/09/28 20:57:34;;;;;;;9.55;3.55;;;20.50;66.70;;;;;;20954230;28;20028;-63
2021/09/28 21:07:34;;;;;;;9.05;3.50;;;20.50;66.80;;;;;;20977656;28;20028;-62
2021/09/28 21:17:35;;;;;;;9.32;4.07;;;20.40;66.80;;;;;;20938224;28;20040;-63
2021/09/28 21:27:35;;;;;;;7.65;3.05;;;20.40;66.70;;;;;;20942541;28;20036;-63
2021/09/28 21:37:38;;;;;;;5.97;2.95;;;20.40;66.70;;;;;;20979577;28;20028;-63
2021/09/28 21:47:40;;;;;;;5.78;2.75;;;20.40;66.60;;;;;;20980875;28;20032;-62
2021/09/28 21:57:41;;;;;;;4.55;3.40;;;20.30;66.50;;;;;;20979484;28;20074;-62
2021/09/28 22:07:42;;;;;;;4.63;2.88;;;20.30;66.40;;;;;;20987254;28;20502;-62
2021/09/28 22:17:43;;;;;;;7.43;3.28;;;20.20;66.30;;;;;;20940518;28;20028;-62
2021/09/28 22:27:43;;;;;;;7.03;3.47;;;20.20;66.40;;;;;;20894554;22;20037;-64
2021/09/28 22:37:44;;;;;;;5.90;3.10;;;20.20;66.40;;;;;;20819394;28;20083;-63
2021/09/28 22:47:44;;;;;;;5.03;3.20;;;20.20;66.30;;;;;;20819116;28;20029;-64
2021/09/28 22:57:45;;;;;;;6.25;3.28;;;20.10;66.30;;;;;;20818577;28;20037;-64
2021/09/28 23:07:45;;;;;;;4.07;2.88;;;20.30;65.60;;;;;;20817898;28;20396;-65
2021/09/28 23:17:46;;;;;;;3.88;2.17;;;20.10;65.80;;;;;;20815441;28;20041;-63
2021/09/28 23:27:46;;;;;;;6.60;2.67;;;20.10;65.60;;;;;;20814842;28;20116;-64
2021/09/28 23:37:47;;;;;;;4.07;2.47;;;20.10;65.50;;;;;;20815472;28;20400;-64
2021/09/28 23:47:47;;;;;;;6.90;3.57;;;20.10;65.20;;;;;;20823939;28;20030;-63
2021/09/28 23:57:48;;;;;;;3.42;2.42;;;20.10;65.50;;;;;;20829815;28;20479;-63
